Time;durP1;ratioP1;P1;durP2;ratioP2;P2;SDS_P1;SDS_P2;PMS_P1;PMS_P2;Temp;Humidity;BMP_temperature;BMP_pressure;BME280_temperature;BME280_humidity;BME280_pressure;Samples;Min_cycle;Max_cycle;Signal;HPM_P1;HPM_P2
2022/11/14 00:00:25;;;;;;;12.27;8.57;;;;;;;6.89;100.00;95558.31;5052903;28;20212;-64
2022/11/14 00:02:51;;;;;;;15.40;9.43;;;;;;;6.89;100.00;95542.38;5070373;28;20211;-59
2022/11/14 00:05:17;;;;;;;18.20;9.63;;;;;;;7.19;100.00;95581.88;5070343;28;20600;-59
2022/11/14 00:07:42;;;;;;;14.60;9.33;;;;;;;7.06;100.00;95563.25;5070244;28;20189;-60
2022/11/14 00:10:08;;;;;;;13.27;7.83;;;;;;;7.02;100.00;95571.09;5052409;28;20216;-65
2022/11/14 00:12:33;;;;;;;13.63;8.93;;;;;;;7.09;100.00;95562.28;5070735;28;20197;-65
2022/11/14 00:14:59;;;;;;;11.70;8.33;;;;;;;7.25;100.00;95579.00;5070615;28;20693;-59
2022/11/14 00:17:24;;;;;;;12.73;8.30;;;;;;;7.40;100.00;95615.25;5052239;28;20189;-61
2022/11/14 00:19:50;;;;;;;14.63;8.10;;;;;;;7.23;100.00;95607.81;5070211;28;20235;-61
2022/11/14 00:22:15;;;;;;;13.63;9.13;;;;;;;7.30;100.00;95593.91;5070220;28;20271;-59
2022/11/14 00:24:41;;;;;;;13.57;8.27;;;;;;;7.34;100.00;95623.19;5070661;28;20290;-61
2022/11/14 00:27:06;;;;;;;12.13;7.93;;;;;;;7.22;100.00;95598.59;5070115;28;20173;-60
2022/11/14 00:29:32;;;;;;;13.27;8.53;;;;;;;7.24;100.00;95591.72;5070393;28;20295;-64
2022/11/14 00:31:57;;;;;;;12.10;8.37;;;;;;;7.39;100.00;95644.00;5052246;28;20259;-59
2022/11/14 00:34:22;;;;;;;13.40;9.10;;;;;;;7.05;100.00;95594.47;5070337;28;20285;-59
2022/11/14 00:36:48;;;;;;;12.90;8.20;;;;;;;7.18;100.00;95604.72;5070368;28;20184;-64
2022/11/14 00:39:14;;;;;;;12.53;8.40;;;;;;;7.13;100.00;95602.44;5070180;28;20244;-61
2022/11/14 00:41:40;;;;;;;12.43;8.60;;;;;;;7.03;100.00;95586.16;5069932;28;20247;-60
2022/11/14 00:44:06;;;;;;;11.37;8.37;;;;;;;6.95;100.00;95573.13;5052281;28;20623;-64
2022/11/14 00:46:33;;;;;;;12.77;8.60;;;;;;;6.96;100.00;95573.97;5071454;28;20307;-65
2022/11/14 00:48:58;;;;;;;15.20;8.80;;;;;;;7.01;100.00;95582.13;5073384;28;20228;-61
2022/11/14 00:51:23;;;;;;;12.90;8.43;;;;;;;7.08;100.00;95568.22;5073373;28;20240;-62
2022/11/14 00:53:49;;;;;;;14.60;10.17;;;;;;;7.20;100.00;95578.47;5073547;28;20556;-60
2022/11/14 00:56:14;;;;;;;16.73;10.60;;;;;;;7.19;100.00;95573.50;5073228;28;20558;-64
2022/11/14 00:58:40;;;;;;;18.27;11.97;;;;;;;7.04;100.00;95560.00;5073385;28;20263;-60
2022/11/14 01:01:05;;;;;;;20.23;10.97;;;;;;;6.96;100.00;95546.16;5055085;28;20209;-63
2022/11/14 01:03:31;;;;;;;17.30;10.87;;;;;;;6.86;100.00;95518.06;5073334;28;20197;-62
2022/11/14 01:05:56;;;;;;;20.77;12.17;;;;;;;6.93;100.00;95524.38;5073173;28;20212;-61
2022/11/14 01:08:22;;;;;;;26.43;14.97;;;;;;;6.91;100.00;95513.56;5073388;28;20184;-64
2022/11/14 01:10:50;;;;;;;26.03;15.77;;;;;;;6.86;100.00;95504.63;5073063;28;20204;-60
2022/11/14 01:13:17;;;;;;;29.90;17.10;;;;;;;7.08;100.00;95528.59;5073253;28;20208;-64
2022/11/14 01:15:48;;;;;;;30.90;17.30;;;;;;;7.06;100.00;95524.50;5072817;28;20639;-65
2022/11/14 01:18:17;;;;;;;36.43;19.40;;;;;;;6.97;100.00;95522.53;5073221;28;20189;-60
2022/11/14 01:20:44;;;;;;;35.73;21.63;;;;;;;7.10;100.00;95533.53;5072666;28;20216;-60
2022/11/14 01:23:12;;;;;;;34.33;19.73;;;;;;;7.30;100.00;95548.41;5073229;28;20250;-61
2022/11/14 01:25:39;;;;;;;35.17;20.37;;;;;;;7.22;100.00;95535.38;5054672;28;20205;-65
2022/11/14 01:28:06;;;;;;;27.10;15.60;;;;;;;7.31;100.00;95557.63;5072649;28;20239;-59
2022/11/14 01:30:32;;;;;;;21.43;13.03;;;;;;;7.13;100.00;95556.94;5072582;28;20299;-63
2022/11/14 01:32:57;;;;;;;13.27;8.77;;;;;;;6.94;100.00;95547.97;5072706;28;20718;-63
2022/11/14 01:35:23;;;;;;;12.67;8.87;;;;;;;6.99;100.00;95538.41;5072671;28;20212;-62
2022/11/14 01:37:49;;;;;;;13.63;8.87;;;;;;;6.97;100.00;95548.59;5072584;28;20192;-60
2022/11/14 01:40:15;;;;;;;13.17;9.43;;;;;;;7.06;100.00;95545.56;5072663;28;20342;-63
2022/11/14 01:42:40;;;;;;;14.43;9.30;;;;;;;7.14;100.00;95558.56;5072532;28;20215;-62
2022/11/14 01:46:00;;;;;;;12.83;8.50;;;;;;;7.15;100.00;95572.84;5072627;28;20754;-59
2022/11/14 01:48:28;;;;;;;15.00;8.93;;;;;;;7.19;100.00;95576.81;4991052;28;20203;-61
2022/11/14 01:50:58;;;;;;;13.63;8.67;;;;;;;7.11;100.00;95568.06;5056651;28;20772;-63
2022/11/14 01:53:24;;;;;;;13.57;8.57;;;;;;;6.80;100.00;95548.72;5072682;28;20649;-61
2022/11/14 01:55:51;;;;;;;11.43;8.20;;;;;;;6.72;100.00;95534.00;5072363;28;20296;-64
2022/11/14 01:58:17;;;;;;;14.87;8.13;;;;;;;6.86;100.00;95548.41;5053521;28;20209;-59
2022/11/14 02:00:43;;;;;;;14.33;10.10;;;;;;;6.68;100.00;95530.03;5054271;28;20256;-64
2022/11/14 02:03:14;;;;;;;14.47;9.00;;;;;;;6.85;100.00;95535.84;5054302;28;20195;-65
2022/11/14 02:05:41;;;;;;;13.67;9.40;;;;;;;6.90;100.00;95557.44;5072411;28;20216;-65
2022/11/14 02:08:11;;;;;;;12.13;8.70;;;;;;;6.96;100.00;95554.56;5072375;28;20196;-64
2022/11/14 02:10:37;;;;;;;14.93;9.57;;;;;;;6.95;100.00;95545.34;5053982;28;20299;-64
2022/11/14 02:13:02;;;;;;;13.90;9.37;;;;;;;6.98;100.00;95560.34;5070849;28;20280;-61
2022/11/14 02:15:28;;;;;;;12.73;8.50;;;;;;;7.13;100.00;95582.22;5037543;28;20216;-62
2022/11/14 02:17:54;;;;;;;14.57;9.13;;;;;;;7.21;100.00;95590.19;5072310;28;20254;-65
2022/11/14 02:20:27;;;;;;;14.17;9.40;;;;;;;7.23;100.00;95597.72;5071936;28;20221;-58
2022/11/14 02:22:53;;;;;;;12.70;8.90;;;;;;;6.99;100.00;95578.84;5072114;28;20196;-63
2022/11/14 02:25:19;;;;;;;12.53;8.70;;;;;;;6.90;100.00;95562.50;5071848;28;20582;-59
2022/11/14 02:27:45;;;;;;;13.33;8.93;;;;;;;6.85;100.00;95539.16;5071806;28;20658;-60
2022/11/14 02:30:14;;;;;;;13.27;9.37;;;;;;;6.87;100.00;95541.63;5071822;28;20204;-59
2022/11/14 02:32:40;;;;;;;15.87;9.17;;;;;;;6.87;100.00;95547.47;5071696;28;20230;-58
2022/11/14 02:35:06;;;;;;;16.27;10.43;;;;;;;6.93;100.00;95558.97;5071803;28;20213;-64
2022/11/14 02:37:31;;;;;;;13.13;9.67;;;;;;;6.99;100.00;95548.53;5071832;28;20654;-64
2022/11/14 02:39:57;;;;;;;14.20;9.23;;;;;;;7.05;100.00;95555.75;5071892;28;20253;-59
2022/11/14 02:42:22;;;;;;;15.07;10.13;;;;;;;7.16;100.00;95561.00;5071700;28;20192;-63
2022/11/14 02:44:48;;;;;;;14.17;8.97;;;;;;;7.30;100.00;95604.03;5071967;28;20213;-64
2022/11/14 02:47:13;;;;;;;14.53;9.33;;;;;;;7.06;100.00;95575.06;5071590;28;20624;-59
2022/11/14 02:49:38;;;;;;;12.60;9.03;;;;;;;7.16;100.00;95586.28;5071679;28;20343;-59
2022/11/14 02:52:04;;;;;;;15.63;9.53;;;;;;;6.95;100.00;95572.34;5071672;28;20243;-61
2022/11/14 02:54:29;;;;;;;14.60;9.80;;;;;;;6.83;100.00;95546.03;5071467;28;20216;-65
2022/11/14 02:56:55;;;;;;;15.87;9.87;;;;;;;6.88;100.00;95553.34;5071473;28;20197;-63
2022/11/14 02:59:20;;;;;;;18.57;10.03;;;;;;;7.00;100.00;95583.81;5053563;28;20216;-64
2022/11/14 03:01:46;;;;;;;21.23;12.20;;;;;;;7.05;100.00;95601.25;5071370;28;20282;-60
2022/11/14 03:04:11;;;;;;;24.43;14.53;;;;;;;6.87;100.00;95574.50;5071816;28;20213;-59
2022/11/14 03:06:36;;;;;;;29.07;16.43;;;;;;;6.62;100.00;95548.06;5071539;28;20192;-60
2022/11/14 03:09:02;;;;;;;28.83;17.77;;;;;;;6.81;100.00;95574.81;5053755;28;20696;-60
2022/11/14 03:11:27;;;;;;;43.97;22.97;;;;;;;6.73;100.00;95588.69;5071448;28;20189;-65
2022/11/14 03:13:53;;;;;;;52.93;25.53;;;;;;;6.63;100.00;95562.28;5071444;28;20670;-64
2022/11/14 03:16:18;;;;;;;50.27;25.97;;;;;;;6.27;100.00;95508.75;5071356;28;20200;-60
2022/11/14 03:18:50;;;;;;;46.47;24.00;;;;;;;6.18;100.00;95470.56;5071121;28;20197;-64
2022/11/14 03:21:21;;;;;;;57.33;26.87;;;;;;;6.35;100.00;95511.66;5070991;28;20224;-61
2022/11/14 03:23:46;;;;;;;47.73;24.03;;;;;;;5.99;100.00;95463.16;5053200;28;20667;-64
2022/11/14 03:26:13;;;;;;;46.87;23.33;;;;;;;6.14;100.00;95501.91;5070945;28;20256;-59
2022/11/14 03:28:39;;;;;;;47.00;22.70;;;;;;;5.95;100.00;95486.94;5071100;28;20286;-60
2022/11/14 03:31:06;;;;;;;43.83;21.73;;;;;;;5.88;100.00;95478.06;5036339;28;20277;-59
2022/11/14 03:33:32;;;;;;;44.63;22.00;;;;;;;5.92;100.00;95492.13;5071196;28;20258;-60
2022/11/14 03:35:57;;;;;;;43.33;22.97;;;;;;;5.80;100.00;95497.78;5070848;28;20215;-59
2022/11/14 03:38:23;;;;;;;44.97;22.30;;;;;;;5.64;100.00;95471.75;5071025;28;20238;-57
2022/11/14 03:40:52;;;;;;;42.23;21.40;;;;;;;5.45;100.00;95456.78;5070637;28;20259;-63
2022/11/14 03:43:19;;;;;;;37.33;19.33;;;;;;;5.34;100.00;95450.66;5070817;28;20230;-64
2022/11/14 03:45:45;;;;;;;41.33;22.27;;;;;;;5.32;100.00;95439.84;5052773;28;20779;-64
2022/11/14 03:48:11;;;;;;;37.30;20.90;;;;;;;5.47;100.00;95479.41;5070940;28;20199;-62
2022/11/14 03:50:36;;;;;;;47.83;20.33;;;;;;;5.15;100.00;95488.59;5070699;28;20265;-63
2022/11/14 03:53:02;;;;;;;33.33;18.77;;;;;;;4.82;100.00;95449.97;5070750;28;20276;-63
2022/11/14 03:55:28;;;;;;;35.83;18.77;;;;;;;4.53;100.00;95433.75;5070630;28;20217;-63
2022/11/14 03:57:53;;;;;;;32.70;20.30;;;;;;;4.54;100.00;95442.13;5070729;28;20271;-64
2022/11/14 04:00:19;;;;;;;33.03;18.97;;;;;;;4.66;100.00;95454.94;5070662;28;20578;-64
2022/11/14 04:02:44;;;;;;;34.93;19.30;;;;;;;4.87;100.00;95481.59;5070430;28;20262;-64
2022/11/14 04:05:10;;;;;;;33.87;19.17;;;;;;;4.81;100.00;95479.38;5070547;28;20214;-59
2022/11/14 04:07:36;;;;;;;28.27;17.33;;;;;;;4.86;100.00;95487.53;5070404;28;20223;-60
2022/11/14 04:10:20;;;;;;;40.30;17.60;;;;;;;4.87;100.00;95504.25;5070660;28;20220;-65
2022/11/14 04:12:51;;;;;;;36.73;17.83;;;;;;;4.65;100.00;95468.41;5052312;28;20781;-63
2022/11/14 04:15:18;;;;;;;24.47;14.83;;;;;;;4.78;100.00;95478.72;5070430;28;20201;-58
2022/11/14 04:17:44;;;;;;;24.23;15.10;;;;;;;4.70;100.00;95470.72;5070345;28;20719;-59
2022/11/14 04:20:10;;;;;;;25.67;16.00;;;;;;;4.79;100.00;95473.59;5070406;28;20255;-61
2022/11/14 04:22:36;;;;;;;23.17;15.10;;;;;;;4.90;100.00;95511.66;5073363;28;20684;-63
2022/11/14 04:25:02;;;;;;;25.10;14.77;;;;;;;4.99;100.00;95521.28;5073713;28;20216;-59
2022/11/14 04:27:27;;;;;;;23.97;14.23;;;;;;;4.84;100.00;95496.84;5055814;28;20232;-65
2022/11/14 04:29:53;;;;;;;22.43;14.27;;;;;;;4.86;100.00;95484.19;5073371;28;20219;-63
2022/11/14 04:32:18;;;;;;;25.07;15.07;;;;;;;4.91;100.00;95485.56;5073654;28;20269;-59
2022/11/14 04:34:44;;;;;;;23.50;15.53;;;;;;;5.12;100.00;95503.88;5074020;28;20567;-64
2022/11/14 04:37:09;;;;;;;23.53;14.77;;;;;;;5.34;100.00;95544.75;5073749;28;20181;-63
2022/11/14 04:39:34;;;;;;;22.80;15.13;;;;;;;5.24;100.00;95530.16;5073945;28;20207;-60
2022/11/14 04:42:00;;;;;;;26.47;14.37;;;;;;;4.92;100.00;95496.47;5055716;28;20275;-63
2022/11/14 04:44:25;;;;;;;23.13;14.17;;;;;;;5.10;100.00;95505.66;5055603;28;20306;-60
2022/11/14 04:46:50;;;;;;;26.83;16.33;;;;;;;4.85;100.00;95478.31;5073435;28;20196;-64
2022/11/14 04:49:16;;;;;;;25.60;14.40;;;;;;;4.96;100.00;95486.19;5073498;28;20205;-62
2022/11/14 04:51:41;;;;;;;24.30;14.13;;;;;;;4.97;100.00;95482.75;5073394;28;20306;-63
2022/11/14 04:54:07;;;;;;;26.13;15.47;;;;;;;4.94;100.00;95470.31;5055651;28;20218;-63
2022/11/14 04:56:33;;;;;;;21.17;13.10;;;;;;;5.01;100.00;95486.75;5073229;28;20715;-62
2022/11/14 04:58:58;;;;;;;22.90;13.70;;;;;;;5.08;100.00;95490.59;5073423;28;20270;-59
2022/11/14 05:01:23;;;;;;;23.97;13.83;;;;;;;5.52;100.00;95437.91;5073284;28;20196;-63
2022/11/14 05:03:49;;;;;;;20.23;13.30;;;;;;;5.57;100.00;95505.75;5073196;28;20207;-61
2022/11/14 05:06:15;;;;;;;23.30;13.57;;;;;;;5.59;100.00;95547.66;5073127;28;20211;-60
2022/11/14 05:08:40;;;;;;;22.83;13.77;;;;;;;5.47;100.00;95555.03;5073320;28;20258;-65
2022/11/14 05:11:05;;;;;;;25.50;15.20;;;;;;;5.35;100.00;95548.09;5054856;28;20658;-66
2022/11/14 05:13:31;;;;;;;23.70;14.07;;;;;;;5.21;100.00;95540.41;5072976;28;20188;-62
2022/11/14 05:16:00;;;;;;;20.23;12.67;;;;;;;5.00;100.00;95515.38;5073037;28;20240;-60
2022/11/14 05:18:26;;;;;;;19.23;13.13;;;;;;;4.82;100.00;95486.03;5073183;28;20200;-59
2022/11/14 05:20:51;;;;;;;23.00;12.87;;;;;;;5.02;100.00;95503.50;5072999;28;20690;-62
2022/11/14 05:23:22;;;;;;;23.73;14.33;;;;;;;4.97;100.00;95484.44;5072922;28;20261;-60
2022/11/14 05:26:07;;;;;;;22.40;13.70;;;;;;;4.97;100.00;95492.84;5072827;28;20212;-60
2022/11/14 05:28:33;;;;;;;23.87;14.10;;;;;;;5.04;100.00;95488.31;5054934;28;20636;-63
2022/11/14 05:31:03;;;;;;;21.73;13.63;;;;;;;5.23;100.00;95495.78;5072699;28;20677;-61
2022/11/14 05:33:29;;;;;;;24.10;14.47;;;;;;;5.24;100.00;95479.75;5071567;28;20671;-63
2022/11/14 05:35:55;;;;;;;26.67;15.13;;;;;;;5.33;100.00;95487.66;5054628;28;20226;-63
2022/11/14 05:38:20;;;;;;;29.73;16.47;;;;;;;5.24;100.00;95472.19;5054626;28;20204;-63
2022/11/14 05:40:46;;;;;;;21.97;14.07;;;;;;;5.33;100.00;95470.03;5072554;28;20310;-59
2022/11/14 05:43:11;;;;;;;27.47;14.73;;;;;;;5.56;100.00;95484.78;5072732;28;20222;-59
2022/11/14 05:45:36;;;;;;;30.93;15.03;;;;;;;5.62;100.00;95488.66;5054339;28;20308;-60
2022/11/14 05:48:02;;;;;;;24.40;14.07;;;;;;;5.44;100.00;95451.81;5054582;28;20199;-57
2022/11/14 05:50:28;;;;;;;30.73;16.33;;;;;;;5.25;100.00;95462.03;5072284;28;20209;-61
2022/11/14 05:52:54;;;;;;;27.40;15.37;;;;;;;5.24;100.00;95474.69;5054567;28;20283;-63
2022/11/14 05:55:20;;;;;;;31.13;17.60;;;;;;;5.17;100.00;95468.34;5072164;28;20212;-58
2022/11/14 05:57:45;;;;;;;32.60;20.07;;;;;;;5.28;100.00;95471.13;5072222;28;20188;-61
2022/11/14 06:00:11;;;;;;;83.10;54.07;;;;;;;6.76;100.00;95486.63;5072129;28;20625;-60
2022/11/14 06:02:37;;;;;;;29.63;17.57;;;;;;;6.79;100.00;95487.28;5054272;28;20269;-65
2022/11/14 06:05:02;;;;;;;31.10;16.57;;;;;;;6.73;100.00;95492.66;5072534;28;20208;-60
2022/11/14 06:07:28;;;;;;;32.13;14.47;;;;;;;6.31;100.00;95494.22;5072366;28;20192;-61
2022/11/14 06:09:53;;;;;;;28.20;14.63;;;;;;;6.13;100.00;95516.25;5072262;28;20201;-60
2022/11/14 06:12:18;;;;;;;29.13;15.20;;;;;;;6.01;100.00;95528.69;5072093;28;20185;-64
2022/11/14 06:14:44;;;;;;;30.93;14.67;;;;;;;6.20;100.00;95562.97;5072259;28;20204;-66
2022/11/14 06:17:09;;;;;;;25.83;14.27;;;;;;;6.11;100.00;95553.38;5072325;28;20188;-60
2022/11/14 06:19:34;;;;;;;24.03;13.67;;;;;;;6.01;100.00;95558.97;5054087;28;20827;-60
2022/11/14 06:22:00;;;;;;;31.17;13.17;;;;;;;5.88;100.00;95556.28;5071720;28;20194;-63
2022/11/14 06:24:25;;;;;;;19.53;11.47;;;;;;;5.83;100.00;95558.19;5072277;28;20215;-58
2022/11/14 06:26:51;;;;;;;18.87;11.07;;;;;;;5.98;100.00;95584.38;5071805;28;20249;-60
2022/11/14 06:29:16;;;;;;;16.63;11.03;;;;;;;5.92;100.00;95573.69;5053976;28;20222;-65
2022/11/14 06:31:41;;;;;;;21.37;11.70;;;;;;;5.70;100.00;95531.97;5071888;28;20699;-67
2022/11/14 06:34:07;;;;;;;21.13;11.80;;;;;;;5.57;100.00;95518.38;5072162;28;20265;-65
2022/11/14 06:36:33;;;;;;;15.93;10.70;;;;;;;5.57;100.00;95525.94;5071925;28;20189;-66
2022/11/14 06:38:58;;;;;;;18.07;10.70;;;;;;;5.69;100.00;95540.44;5071829;28;20220;-62
2022/11/14 06:41:24;;;;;;;19.03;10.63;;;;;;;5.66;100.00;95522.94;5053846;28;20621;-66
2022/11/14 06:43:52;;;;;;;20.40;11.13;;;;;;;5.74;100.00;95533.44;5053179;28;20243;-63
2022/11/14 06:46:19;;;;;;;24.50;12.20;;;;;;;5.96;100.00;95566.00;5053726;28;20564;-61
2022/11/14 06:48:46;;;;;;;22.40;11.63;;;;;;;5.70;100.00;95537.00;5071393;28;20206;-65
2022/11/14 06:51:13;;;;;;;22.47;11.93;;;;;;;5.65;100.00;95509.53;5071398;28;20225;-64
2022/11/14 06:53:39;;;;;;;17.73;11.43;;;;;;;5.65;100.00;95503.66;5053544;28;20196;-63
2022/11/14 06:56:08;;;;;;;22.97;12.73;;;;;;;5.79;100.00;95544.13;5071331;28;20190;-62
2022/11/14 06:58:39;;;;;;;21.57;12.53;;;;;;;5.87;100.00;95549.59;5071465;28;20200;-64
2022/11/14 07:01:12;;;;;;;20.50;11.73;;;;;;;5.77;100.00;95508.06;5071664;28;20573;-64
2022/11/14 07:03:45;;;;;;;22.47;11.87;;;;;;;5.73;100.00;95493.97;5071510;28;20204;-60
2022/11/14 07:06:22;;;;;;;21.53;12.80;;;;;;;5.95;100.00;95497.03;5071211;28;20272;-65
2022/11/14 07:08:48;;;;;;;19.87;12.07;;;;;;;5.78;100.00;95519.78;5071977;28;20194;-65
2022/11/14 07:11:21;;;;;;;18.00;11.57;;;;;;;5.76;100.00;95519.84;5071101;28;20298;-63
2022/11/14 07:13:57;;;;;;;20.53;12.37;;;;;;;5.74;100.00;95473.72;5071559;28;20677;-60
2022/11/14 07:16:28;;;;;;;23.10;12.17;;;;;;;5.53;100.00;95463.94;5071343;28;20215;-64
2022/11/14 07:18:54;;;;;;;25.10;13.23;;;;;;;5.66;100.00;95477.53;5071593;28;20231;-60
2022/11/14 07:21:19;;;;;;;22.83;13.20;;;;;;;5.81;100.00;95499.44;5070795;28;20234;-60
2022/11/14 07:23:45;;;;;;;25.47;13.03;;;;;;;5.87;100.00;95494.09;5071002;28;20686;-60
2022/11/14 07:26:11;;;;;;;27.07;14.30;;;;;;;6.10;100.00;95501.25;5071080;28;20181;-61
2022/11/14 07:28:40;;;;;;;24.03;13.87;;;;;;;5.96;100.00;95496.13;5070687;28;20576;-60
2022/11/14 07:31:07;;;;;;;31.67;14.80;;;;;;;6.08;100.00;95487.09;5052607;28;20215;-61
2022/11/14 07:33:33;;;;;;;24.33;14.10;;;;;;;6.17;100.00;95486.59;5071115;28;20199;-61
2022/11/14 07:35:59;;;;;;;23.83;14.23;;;;;;;6.33;100.00;95513.44;5052757;28;20591;-62
2022/11/14 07:38:25;;;;;;;29.70;15.37;;;;;;;6.55;100.00;95539.16;5052971;28;20185;-64
2022/11/14 07:40:59;;;;;;;26.60;15.27;;;;;;;6.57;100.00;95511.28;5052666;28;20294;-61
2022/11/14 07:43:25;;;;;;;27.87;14.03;;;;;;;6.70;100.00;95557.72;5070905;28;20196;-61
2022/11/14 07:45:50;;;;;;;27.50;14.57;;;;;;;6.66;100.00;95546.16;5070467;28;20567;-58
2022/11/14 07:48:17;;;;;;;22.80;14.37;;;;;;;6.61;100.00;95545.59;5070858;28;20202;-60
2022/11/14 07:50:43;;;;;;;22.63;14.20;;;;;;;6.37;100.00;95496.41;5070433;28;20219;-65
2022/11/14 07:53:09;;;;;;;22.33;13.87;;;;;;;6.52;100.00;95521.66;5070873;28;20195;-64
2022/11/14 07:55:35;;;;;;;25.07;14.27;;;;;;;6.41;100.00;95516.38;5070389;28;20207;-64
2022/11/14 07:58:00;;;;;;;21.93;13.73;;;;;;;6.61;100.00;95528.72;5074126;28;20532;-64
2022/11/14 08:00:26;;;;;;;24.07;14.30;;;;;;;6.63;100.00;95500.84;5073953;28;20241;-64
2022/11/14 08:02:51;;;;;;;27.83;14.50;;;;;;;6.71;100.00;95509.63;5074152;28;20208;-63
2022/11/14 08:05:17;;;;;;;26.67;15.10;;;;;;;6.74;100.00;95496.03;5074032;28;20211;-64
2022/11/14 08:07:43;;;;;;;26.27;14.57;;;;;;;6.68;100.00;95539.31;5073966;28;20217;-65
2022/11/14 08:10:10;;;;;;;28.20;16.77;;;;;;;6.41;100.00;95488.59;5073920;28;20561;-65
2022/11/14 08:12:38;;;;;;;26.93;15.17;;;;;;;6.55;100.00;95506.31;5073908;28;20184;-60
2022/11/14 08:15:08;;;;;;;28.67;15.73;;;;;;;6.58;100.00;95508.69;5073598;28;20212;-59
2022/11/14 08:17:34;;;;;;;25.43;15.10;;;;;;;6.66;100.00;95525.94;5081334;22;20223;-63
2022/11/14 08:19:59;;;;;;;22.17;13.60;;;;;;;6.46;100.00;95500.97;5073668;28;20215;-63
2022/11/14 08:22:25;;;;;;;28.57;15.17;;;;;;;6.65;100.00;95504.91;5073910;28;20181;-59
2022/11/14 08:24:50;;;;;;;24.40;14.70;;;;;;;6.60;100.00;95506.91;5073563;28;20239;-59
2022/11/14 08:27:16;;;;;;;24.83;15.13;;;;;;;6.57;100.00;95536.53;5074049;28;20185;-60
2022/11/14 08:29:41;;;;;;;28.53;15.77;;;;;;;6.33;100.00;95502.53;5073636;28;20314;-63
2022/11/14 08:32:07;;;;;;;25.43;15.67;;;;;;;6.47;100.00;95493.31;5073917;28;20219;-59
2022/11/14 08:34:32;;;;;;;24.77;15.40;;;;;;;6.27;100.00;95496.13;5055418;28;20208;-63
2022/11/14 08:36:58;;;;;;;26.67;16.27;;;;;;;6.10;100.00;95478.53;5073959;28;20196;-65
2022/11/14 08:39:23;;;;;;;24.03;13.97;;;;;;;5.99;100.00;95432.88;5073337;28;20203;-60
2022/11/14 08:41:48;;;;;;;25.97;15.17;;;;;;;6.18;100.00;95440.28;5073466;28;20195;-58
2022/11/14 08:44:14;;;;;;;29.73;15.77;;;;;;;6.44;100.00;95445.50;5073384;28;20214;-64
2022/11/14 08:46:39;;;;;;;26.87;15.53;;;;;;;6.50;100.00;95449.41;5073427;28;20199;-65
2022/11/14 08:49:05;;;;;;;23.93;15.47;;;;;;;6.44;100.00;95450.56;5073451;28;20199;-65
2022/11/14 08:51:30;;;;;;;24.03;15.77;;;;;;;6.64;100.00;95447.72;5073235;28;20279;-60
2022/11/14 08:53:55;;;;;;;26.37;15.57;;;;;;;6.90;100.00;95448.75;5073210;28;20708;-60
2022/11/14 08:56:21;;;;;;;25.73;17.27;;;;;;;7.06;100.00;95484.06;5073276;28;20188;-64
2022/11/14 08:58:47;;;;;;;29.80;16.27;;;;;;;7.15;100.00;95463.31;5055234;28;20196;-64
2022/11/14 09:01:12;;;;;;;32.20;16.77;;;;;;;7.24;100.00;95467.81;5073199;28;20606;-65
2022/11/14 09:03:37;;;;;;;27.50;16.53;;;;;;;7.47;100.00;95485.00;5073064;28;20185;-65
2022/11/14 09:06:03;;;;;;;30.00;16.67;;;;;;;7.59;100.00;95492.66;5055158;28;20189;-65
2022/11/14 09:08:29;;;;;;;25.93;15.87;;;;;;;7.72;100.00;95505.41;5054709;28;20189;-65
2022/11/14 09:10:58;;;;;;;26.77;16.20;;;;;;;7.91;100.00;95543.91;5072718;28;20201;-62
2022/11/14 09:13:24;;;;;;;29.83;16.67;;;;;;;8.01;100.00;95562.69;5072810;28;20276;-61
2022/11/14 09:15:49;;;;;;;31.13;17.50;;;;;;;7.73;100.00;95541.66;5072743;28;20296;-61
2022/11/14 09:18:15;;;;;;;30.47;17.47;;;;;;;7.56;100.00;95497.09;5072946;28;20181;-60
2022/11/14 09:20:40;;;;;;;30.00;18.23;;;;;;;7.74;100.00;95503.59;5072836;28;20262;-60
2022/11/14 09:23:06;;;;;;;29.17;17.10;;;;;;;7.54;100.00;95474.41;5072923;28;20214;-59
2022/11/14 09:25:31;;;;;;;28.77;17.70;;;;;;;7.51;100.00;95461.94;5072784;28;20778;-60
2022/11/14 09:27:57;;;;;;;33.63;19.17;;;;;;;7.39;100.00;95421.41;5072975;28;20185;-59
2022/11/14 09:30:23;;;;;;;29.13;19.03;;;;;;;7.55;100.00;95445.69;5072503;28;20217;-62
2022/11/14 09:32:49;;;;;;;34.77;19.27;;;;;;;7.76;100.00;95441.03;5072650;28;20196;-66
2022/11/14 09:35:15;;;;;;;34.97;19.80;;;;;;;8.17;100.00;95492.47;5072573;28;20201;-61
2022/11/14 09:37:40;;;;;;;29.13;17.73;;;;;;;8.10;100.00;95477.78;5072837;28;20664;-63
2022/11/14 09:40:08;;;;;;;30.53;18.37;;;;;;;8.13;100.00;95485.97;5072510;28;20315;-65
2022/11/14 09:42:53;;;;;;;31.53;18.80;;;;;;;8.34;100.00;95476.28;5072972;28;20198;-61
2022/11/14 09:45:19;;;;;;;33.33;18.37;;;;;;;8.72;100.00;95534.66;5072505;28;20208;-59
2022/11/14 09:47:49;;;;;;;36.03;19.33;;;;;;;8.63;100.00;95542.84;5072500;28;20704;-64
2022/11/14 09:50:18;;;;;;;30.67;18.80;;;;;;;8.71;100.00;95505.16;5072254;28;20693;-63
2022/11/14 09:52:51;;;;;;;31.80;18.03;;;;;;;8.65;100.00;95487.78;5054157;28;20201;-62
2022/11/14 09:55:21;;;;;;;30.70;18.57;;;;;;;9.07;100.00;95502.81;5072163;28;20248;-63
2022/11/14 09:57:47;;;;;;;26.47;16.80;;;;;;;9.29;100.00;95521.56;5072983;28;20197;-65
2022/11/14 10:00:15;;;;;;;26.37;16.43;;;;;;;9.43;100.00;95590.91;5071947;28;20228;-60
2022/11/14 10:02:59;;;;;;;26.47;16.63;;;;;;;9.18;100.00;95567.13;5054292;28;20196;-61
2022/11/14 10:05:43;;;;;;;28.87;17.40;;;;;;;8.91;100.00;95497.91;5072073;28;20209;-62
2022/11/14 10:08:25;;;;;;;30.20;18.57;;;;;;;9.03;100.00;95460.81;5072002;28;20200;-60
2022/11/14 10:10:58;;;;;;;27.70;15.63;;;;;;;9.25;100.00;95532.84;5072031;28;20277;-62
2022/11/14 10:13:41;;;;;;;24.77;16.73;;;;;;;9.36;100.00;95542.28;5072039;28;20224;-59
2022/11/14 10:16:18;;;;;;;29.30;16.67;;;;;;;9.54;100.00;95480.16;5072250;28;20184;-63
2022/11/14 10:19:10;;;;;;;25.13;16.53;;;;;;;9.87;100.00;95462.63;5053253;28;20189;-60
2022/11/14 10:22:11;;;;;;;33.20;17.43;;;;;;;10.25;100.00;95507.44;5071965;28;20197;-63
2022/11/14 10:25:16;;;;;;;29.13;17.77;;;;;;;10.66;100.00;95543.50;5071790;28;20752;-62
2022/11/14 10:27:45;;;;;;;30.27;17.10;;;;;;;11.04;100.00;95540.75;5045359;28;20236;-63
2022/11/14 10:30:14;;;;;;;25.63;17.10;;;;;;;11.32;100.00;95592.09;5071581;28;20219;-64
2022/11/14 10:33:05;;;;;;;25.40;16.60;;;;;;;11.70;100.00;95582.47;5037373;28;20591;-59
2022/11/14 10:35:39;;;;;;;26.07;17.00;;;;;;;11.81;100.00;95627.56;5071762;28;20211;-63
2022/11/14 10:38:20;;;;;;;27.43;17.73;;;;;;;12.04;100.00;95610.56;5071605;28;20189;-62
2022/11/14 10:40:49;;;;;;;28.10;17.90;;;;;;;12.09;100.00;95599.09;5071421;28;20692;-58
2022/11/14 10:43:48;;;;;;;31.70;17.50;;;;;;;12.36;100.00;95645.41;5071333;28;20185;-59
2022/11/14 10:46:25;;;;;;;25.53;16.63;;;;;;;12.49;100.00;95628.28;5020999;28;20265;-58
2022/11/14 10:48:52;;;;;;;29.40;18.20;;;;;;;12.54;100.00;95661.09;5071282;28;20189;-63
2022/11/14 10:51:28;;;;;;;32.40;20.57;;;;;;;12.86;100.00;95692.59;5071460;28;20212;-64
2022/11/14 10:54:17;;;;;;;23.80;17.17;;;;;;;13.03;100.00;95653.78;5053097;28;20185;-62
2022/11/14 10:57:00;;;;;;;29.13;17.83;;;;;;;12.71;100.00;95598.53;5053357;28;20219;-61
2022/11/14 10:59:26;;;;;;;30.93;19.53;;;;;;;12.87;100.00;95612.53;5071272;28;20218;-62
2022/11/14 11:01:57;;;;;;;33.17;20.37;;;;;;;13.11;100.00;95623.41;5071259;28;20185;-62
2022/11/14 11:04:29;;;;;;;29.37;19.17;;;;;;;13.21;100.00;95670.25;5071472;28;20269;-62
2022/11/14 11:11:28;;;;;;;34.87;20.30;;;;;;;13.27;100.00;95677.44;5071602;28;20239;-61
2022/11/14 11:12:47;;;;;;;32.93;18.80;;;;;;;13.28;100.00;95610.13;5071677;28;20223;-63
2022/11/14 11:15:14;;;;;;;29.73;19.47;;;;;;;13.48;98.93;95680.03;5071067;28;20215;-61
2022/11/14 11:17:59;;;;;;;33.47;20.93;;;;;;;13.54;98.62;95681.28;5071222;28;20192;-61
2022/11/14 11:20:31;;;;;;;34.33;19.73;;;;;;;13.74;98.35;95654.94;5070960;28;20220;-61
2022/11/14 11:23:05;;;;;;;31.13;19.73;;;;;;;13.87;96.48;95704.97;5070741;28;20193;-58
2022/11/14 11:25:32;;;;;;;34.27;21.30;;;;;;;13.99;96.50;95690.38;5070696;28;20299;-61